Time;durP1;ratioP1;P1;durP2;ratioP2;P2;SDS_P1;SDS_P2;PMS_P1;PMS_P2;Temp;Humidity;BMP_temperature;BMP_pressure;BME280_temperature;BME280_humidity;BME280_pressure;Samples;Min_cycle;Max_cycle;Signal;HPM_P1;HPM_P2
2020/12/20 00:02:19;;;;;;;5.15;1.92;;;;;;;5.92;87.05;99967.75;5059410;28;20400;-88
2020/12/20 00:04:45;;;;;;;5.07;1.90;;;;;;;5.91;87.39;99973.91;5059137;28;20468;-89
2020/12/20 00:07:15;;;;;;;3.55;1.50;;;;;;;5.91;87.33;99974.72;5059402;28;20473;-87
2020/12/20 00:09:41;;;;;;;4.28;1.45;;;;;;;5.91;87.15;99976.50;5060561;28;20047;-86
2020/12/20 00:15:29;;;;;;;5.88;1.33;;;;;;;5.92;87.06;99992.00;5076052;28;20031;-88
2020/12/20 00:17:55;;;;;;;9.02;1.40;;;;;;;5.91;86.95;99987.75;5058370;28;20472;-88
2020/12/20 00:20:22;;;;;;;10.60;2.92;;;;;;;5.89;86.99;99981.00;5059025;28;20020;-89
2020/12/20 00:22:48;;;;;;;5.15;2.05;;;;;;;5.87;87.10;99981.13;5058459;28;20375;-88
2020/12/20 00:25:15;;;;;;;5.15;1.40;;;;;;;5.87;86.97;99991.53;5059249;28;20478;-88
2020/12/20 00:27:43;;;;;;;5.30;1.27;;;;;;;5.88;87.11;99994.97;5058728;28;20455;-90
2020/12/20 00:33:31;;;;;;;7.93;1.60;;;;;;;5.89;86.98;100007.84;5078780;28;20055;-88
2020/12/20 00:35:58;;;;;;;4.88;1.30;;;;;;;5.90;87.16;100008.69;5058976;28;20447;-88
2020/12/20 00:38:24;;;;;;;5.68;1.10;;;;;;;5.92;86.97;100014.59;5058286;28;20422;-88
2020/12/20 00:40:50;;;;;;;5.80;1.70;;;;;;;5.93;87.12;100013.66;5057918;28;20032;-87
2020/12/20 00:43:16;;;;;;;9.38;1.52;;;;;;;5.93;87.10;100017.06;5057903;28;20376;-89
2020/12/20 00:45:49;;;;;;;4.47;1.20;;;;;;;5.95;87.18;100003.94;5057595;28;20020;-88
2020/12/20 00:48:15;;;;;;;4.00;0.90;;;;;;;5.95;87.23;100004.75;5058009;28;20456;-89
2020/12/20 00:50:42;;;;;;;5.05;1.27;;;;;;;5.98;87.36;100014.91;5057918;28;20424;-87
2020/12/20 00:53:08;;;;;;;5.95;1.52;;;;;;;5.98;87.32;100009.69;5058218;28;20371;-89
2020/12/20 00:55:34;;;;;;;7.55;1.58;;;;;;;6.02;87.31;100012.91;5058367;28;20486;-88
2020/12/20 00:58:01;;;;;;;3.88;1.25;;;;;;;6.03;87.16;100008.50;5058347;28;20463;-89
2020/12/20 01:00:27;;;;;;;7.50;1.45;;;;;;;6.05;86.98;100030.03;5058024;28;20372;-87
2020/12/20 01:06:22;;;;;;;6.35;1.30;;;;;;;6.08;87.13;100034.97;5075381;28;20035;-88
2020/12/20 01:08:49;;;;;;;4.95;1.10;;;;;;;6.08;87.26;100027.16;5058712;28;20376;-89
2020/12/20 01:11:16;;;;;;;6.22;1.17;;;;;;;6.09;86.93;100031.41;5057416;28;20490;-88
2020/12/20 01:13:47;;;;;;;12.52;1.45;;;;;;;6.11;87.09;100032.94;5057700;28;20464;-88
2020/12/20 01:16:22;;;;;;;4.13;1.00;;;;;;;6.12;87.14;100034.59;5057880;28;20375;-87
2020/12/20 01:18:49;;;;;;;6.78;1.55;;;;;;;6.13;87.12;100025.00;5057786;28;20459;-88
2020/12/20 01:21:17;;;;;;;8.52;0.95;;;;;;;6.14;87.00;100030.06;5058030;28;20089;-87
2020/12/20 01:23:44;;;;;;;3.50;0.90;;;;;;;6.13;86.90;100023.22;5059182;28;20304;-87
2020/12/20 01:26:10;;;;;;;5.03;1.00;;;;;;;6.16;86.91;100037.78;5057909;28;20352;-88
2020/12/20 01:28:37;;;;;;;4.82;0.93;;;;;;;6.15;87.02;100025.69;5057685;28;20375;-88
2020/12/20 01:31:19;;;;;;;5.57;0.82;;;;;;;6.14;86.78;100037.06;5058741;28;20435;-87
2020/12/20 01:33:51;;;;;;;3.47;0.85;;;;;;;6.13;86.81;100038.00;5069392;28;20382;-87
2020/12/20 01:36:23;;;;;;;5.63;1.25;;;;;;;6.14;86.81;100039.66;5079596;28;20024;-87
2020/12/20 01:38:50;;;;;;;3.75;0.98;;;;;;;6.15;86.86;100031.72;5067742;28;20460;-86
2020/12/20 01:41:16;;;;;;;7.47;1.23;;;;;;;6.15;86.64;100036.09;5061105;28;20364;-87
2020/12/20 01:43:46;;;;;;;6.07;1.15;;;;;;;6.16;86.87;100040.38;5058183;28;20024;-87
2020/12/20 01:46:15;;;;;;;5.40;1.15;;;;;;;6.17;86.63;100029.84;5057872;28;20532;-86
2020/12/20 01:48:41;;;;;;;4.10;0.95;;;;;;;6.16;86.66;100043.00;5057412;28;20668;-87
2020/12/20 01:51:08;;;;;;;4.25;0.93;;;;;;;6.16;86.75;100038.59;5058696;28;20474;-88
2020/12/20 01:53:39;;;;;;;5.05;0.82;;;;;;;6.17;86.35;100040.25;5057769;28;20535;-86
2020/12/20 01:56:06;;;;;;;4.57;1.05;;;;;;;6.16;86.48;100043.81;5056952;28;20410;-87
2020/12/20 01:58:36;;;;;;;8.77;1.40;;;;;;;6.14;86.48;100040.50;5056736;28;20395;-86
2020/12/20 02:01:04;;;;;;;8.13;1.05;;;;;;;6.15;86.35;100046.53;5058538;28;20523;-87
2020/12/20 02:03:31;;;;;;;7.05;1.05;;;;;;;6.16;86.48;100048.19;5058637;28;20040;-87
2020/12/20 02:09:21;;;;;;;6.28;1.33;;;;;;;6.19;86.20;100055.75;5077413;28;20077;-87
2020/12/20 02:11:49;;;;;;;2.78;1.00;;;;;;;6.19;86.19;100059.19;5058341;28;20466;-89
2020/12/20 02:14:17;;;;;;;4.70;0.95;;;;;;;6.20;86.34;100065.22;5060325;28;20388;-87
2020/12/20 02:16:44;;;;;;;5.97;1.00;;;;;;;6.20;86.08;100075.63;5061187;28;20035;-86
2020/12/20 02:19:11;;;;;;;5.97;1.25;;;;;;;6.20;86.18;100078.22;5060984;28;20541;-86
2020/12/20 02:21:37;;;;;;;8.88;1.30;;;;;;;6.20;86.03;100088.66;5060512;28;20479;-86
2020/12/20 02:24:03;;;;;;;5.18;1.00;;;;;;;6.19;86.09;100087.81;5061986;28;20460;-89
2020/12/20 02:26:30;;;;;;;4.65;0.82;;;;;;;6.20;85.92;100089.47;5078678;28;20051;-87
2020/12/20 02:28:57;;;;;;;8.40;1.52;;;;;;;6.24;85.90;100103.06;5060641;28;20356;-87
2020/12/20 02:34:44;;;;;;;8.35;1.20;;;;;;;6.26;85.81;100101.16;5078687;28;20031;-84
2020/12/20 02:37:10;;;;;;;4.82;1.00;;;;;;;6.29;85.79;100111.31;5061807;28;20016;-87
2020/12/20 02:39:40;;;;;;;4.30;0.95;;;;;;;6.29;85.70;100111.31;5065392;28;20021;-86
2020/12/20 02:42:07;;;;;;;8.40;1.48;;;;;;;6.29;85.68;100116.50;5063082;28;20047;-87
2020/12/20 02:44:35;;;;;;;3.85;0.98;;;;;;;6.28;85.63;100120.06;5061640;28;20430;-87
2020/12/20 02:47:01;;;;;;;11.13;1.33;;;;;;;6.27;85.74;100121.03;5061833;28;20425;-87
2020/12/20 02:49:28;;;;;;;5.47;1.83;;;;;;;6.26;85.72;100112.38;5062385;28;20017;-87
2020/12/20 02:51:54;;;;;;;6.75;1.02;;;;;;;6.25;85.55;100121.16;5064409;28;20364;-86
2020/12/20 02:54:20;;;;;;;8.35;1.38;;;;;;;6.24;85.53;100124.72;5062876;28;20332;-87
2020/12/20 02:56:46;;;;;;;9.07;1.33;;;;;;;6.28;85.44;100122.69;5062411;28;20491;-87
2020/12/20 02:59:13;;;;;;;5.70;1.33;;;;;;;6.25;85.47;100128.16;5063698;28;20371;-86
2020/12/20 03:01:39;;;;;;;6.35;1.35;;;;;;;6.25;85.63;100134.19;5064193;28;20416;-87
2020/12/20 03:04:05;;;;;;;8.10;1.40;;;;;;;6.27;85.50;100147.06;5060541;28;20055;-87
2020/12/20 03:06:31;;;;;;;9.30;1.50;;;;;;;6.29;85.40;100145.16;5059636;28;20028;-87
2020/12/20 03:08:57;;;;;;;6.90;1.17;;;;;;;6.28;85.33;100152.16;5059428;28;20024;-87
2020/12/20 03:11:23;;;;;;;8.57;1.10;;;;;;;6.29;85.35;100152.97;5059909;28;20052;-87
2020/12/20 03:13:50;;;;;;;6.75;1.75;;;;;;;6.28;85.49;100162.56;5060797;28;20035;-87
2020/12/20 03:16:16;;;;;;;7.05;1.38;;;;;;;6.28;85.52;100157.38;5061974;28;20409;-87
2020/12/20 03:18:42;;;;;;;6.40;1.35;;;;;;;6.34;85.28;100163.03;5061275;28;20044;-87
2020/12/20 03:21:08;;;;;;;8.73;1.23;;;;;;;6.38;85.32;100156.63;5060208;28;20036;-86
2020/12/20 03:23:34;;;;;;;6.30;1.27;;;;;;;6.40;85.18;100168.56;5061494;28;20028;-87
2020/12/20 03:26:00;;;;;;;5.82;1.00;;;;;;;6.40;85.29;100171.16;5058902;28;20028;-86
2020/12/20 03:28:26;;;;;;;3.97;1.00;;;;;;;6.38;85.38;100161.81;5059373;28;20028;-87
2020/12/20 03:30:52;;;;;;;6.30;1.38;;;;;;;6.37;85.33;100165.38;5059385;28;20064;-89
2020/12/20 03:33:38;;;;;;;7.63;1.10;;;;;;;6.35;85.30;100169.91;5096610;28;20134;-87
2020/12/20 03:36:05;;;;;;;10.48;1.45;;;;;;;6.33;85.27;100169.19;5072501;28;20021;-87
2020/12/20 03:41:53;;;;;;;8.63;1.10;;;;;;;6.29;85.19;100166.81;5086793;28;20050;-86
2020/12/20 03:44:19;;;;;;;6.43;1.58;;;;;;;6.29;85.17;100173.81;5065791;28;20078;-89
2020/12/20 03:46:45;;;;;;;6.13;1.20;;;;;;;6.30;85.26;100172.84;5060281;28;20028;-88
2020/12/20 03:49:11;;;;;;;9.38;1.40;;;;;;;6.29;85.44;100179.84;5059060;28;20460;-87
2020/12/20 03:51:38;;;;;;;5.72;1.20;;;;;;;6.30;85.46;100184.09;5058919;28;20509;-88
2020/12/20 03:54:04;;;;;;;6.35;1.20;;;;;;;6.30;85.46;100184.09;5059480;28;20525;-88
2020/12/20 03:56:32;;;;;;;6.13;1.10;;;;;;;6.34;85.43;100195.13;5059541;28;20025;-86
2020/12/20 03:58:58;;;;;;;8.48;1.48;;;;;;;6.36;85.64;100201.03;5062926;28;20472;-87
2020/12/20 04:01:25;;;;;;;6.03;0.98;;;;;;;6.36;85.58;100193.22;5060108;28;20531;-87
2020/12/20 04:03:52;;;;;;;5.00;1.13;;;;;;;6.36;85.69;100206.25;5059481;28;20482;-88
2020/12/20 04:06:18;;;;;;;8.15;1.08;;;;;;;6.36;85.55;100202.81;5061607;28;20476;-88
2020/12/20 04:08:45;;;;;;;5.75;1.10;;;;;;;6.34;85.65;100210.75;5059386;28;20463;-87
2020/12/20 04:11:11;;;;;;;6.97;1.30;;;;;;;6.32;85.83;100207.44;5058848;28;20532;-87
2020/12/20 04:13:37;;;;;;;7.28;1.38;;;;;;;6.29;85.65;100211.09;5060923;28;20029;-88
2020/12/20 04:16:07;;;;;;;6.18;1.15;;;;;;;6.28;85.72;100206.03;5058669;28;20383;-87
2020/12/20 04:18:33;;;;;;;6.65;0.98;;;;;;;6.25;85.82;100208.88;5059032;28;20367;-89
2020/12/20 04:20:59;;;;;;;6.93;1.23;;;;;;;6.24;85.81;100207.22;5058176;28;20424;-88
2020/12/20 04:23:25;;;;;;;8.98;1.83;;;;;;;6.22;86.02;100207.34;5058723;28;20081;-89
2020/12/20 04:25:51;;;;;;;8.25;1.75;;;;;;;6.20;86.08;100206.66;5058766;28;20375;-88
2020/12/20 04:28:18;;;;;;;6.97;1.30;;;;;;;6.18;86.12;100211.16;5060034;28;20378;-88
2020/12/20 04:30:44;;;;;;;9.27;1.48;;;;;;;6.18;86.28;100205.13;5060900;28;20444;-88
2020/12/20 04:33:10;;;;;;;6.45;1.23;;;;;;;6.16;86.16;100205.25;5064537;28;20027;-87
2020/12/20 04:35:36;;;;;;;5.82;1.08;;;;;;;6.15;86.33;100207.97;5059719;28;20052;-89
2020/12/20 04:38:03;;;;;;;11.18;1.20;;;;;;;6.14;86.43;100211.53;5060232;28;20107;-89
2020/12/20 04:40:30;;;;;;;5.80;0.80;;;;;;;6.13;86.51;100208.09;5062992;28;20474;-87
2020/12/20 04:43:04;;;;;;;8.07;1.38;;;;;;;6.13;86.51;100210.69;5065039;28;20376;-87
2020/12/20 04:45:31;;;;;;;7.50;1.15;;;;;;;6.14;86.43;100212.34;5064922;28;20476;-88
2020/12/20 04:47:57;;;;;;;6.45;1.30;;;;;;;6.13;86.55;100208.09;5063362;28;20378;-88
2020/12/20 04:50:24;;;;;;;6.68;1.17;;;;;;;6.11;86.62;100215.19;5062774;28;20353;-87
2020/12/20 04:52:54;;;;;;;6.68;1.02;;;;;;;6.13;86.59;100215.91;5061359;28;20551;-88
2020/12/20 04:55:25;;;;;;;5.60;1.30;;;;;;;6.12;86.69;100214.25;5063185;28;20028;-87
2020/12/20 04:57:53;;;;;;;5.15;1.40;;;;;;;6.13;86.55;100213.31;5061137;28;20373;-89
2020/12/20 05:00:29;;;;;;;8.20;1.42;;;;;;;6.13;86.65;100209.88;5062265;28;20486;-89
2020/12/20 05:02:58;;;;;;;3.72;0.93;;;;;;;6.13;86.77;100215.91;5060867;28;20475;-89
2020/12/20 05:05:24;;;;;;;5.82;1.20;;;;;;;6.15;86.79;100219.22;5062092;28;20486;-89
2020/12/20 05:07:52;;;;;;;2.17;1.00;;;;;;;6.14;86.66;100222.75;5057951;28;20127;-88
2020/12/20 05:10:18;;;;;;;5.03;1.10;;;;;;;6.14;86.73;100216.72;5057595;28;20475;-89
2020/12/20 05:12:44;;;;;;;5.53;0.95;;;;;;;6.13;86.71;100223.72;5057474;28;20421;-89
2020/12/20 05:15:24;;;;;;;8.98;1.05;;;;;;;6.11;86.81;100224.78;5057304;28;20386;-88
2020/12/20 05:18:06;;;;;;;7.88;1.17;;;;;;;6.07;86.92;100226.81;5057331;28;20433;-89
2020/12/20 05:20:42;;;;;;;4.93;1.13;;;;;;;6.08;87.02;100223.25;5057135;28;20371;-89
2020/12/20 05:23:09;;;;;;;9.13;1.67;;;;;;;6.05;87.11;100227.91;5057129;28;20383;-89
2020/12/20 05:25:37;;;;;;;8.68;1.20;;;;;;;6.05;86.93;100228.72;5057329;28;20529;-89
2020/12/20 05:28:12;;;;;;;5.32;1.00;;;;;;;6.04;87.14;100232.28;5057209;28;20436;-89
2020/12/20 05:30:40;;;;;;;11.63;1.48;;;;;;;6.03;87.20;100229.81;5058483;28;20429;-88
2020/12/20 05:33:09;;;;;;;6.38;0.90;;;;;;;6.04;87.21;100234.06;5060100;28;20025;-88
2020/12/20 05:35:42;;;;;;;6.65;1.17;;;;;;;6.00;87.20;100226.50;5074470;28;20020;-89
2020/12/20 05:38:10;;;;;;;6.35;1.10;;;;;;;5.99;87.47;100229.19;5052854;28;20032;-88
2020/12/20 05:40:37;;;;;;;6.53;1.33;;;;;;;5.99;87.47;100226.59;5072931;28;20021;-86
2020/12/20 05:43:06;;;;;;;4.93;0.90;;;;;;;5.97;87.51;100228.50;5067250;28;20348;-89
2020/12/20 05:45:35;;;;;;;6.05;1.30;;;;;;;5.96;87.54;100232.88;5059666;28;20382;-88
2020/12/20 05:48:18;;;;;;;6.95;1.00;;;;;;;5.92;87.27;100228.03;5056447;28;20494;-87
2020/12/20 05:51:06;;;;;;;8.13;1.30;;;;;;;5.90;87.46;100241.19;5056623;28;20485;-86
2020/12/20 05:53:34;;;;;;;5.22;1.00;;;;;;;5.89;87.65;100244.72;5056977;28;20024;-86
2020/12/20 05:56:03;;;;;;;7.68;1.00;;;;;;;5.88;87.80;100244.84;5056731;28;20157;-87
2020/12/20 05:58:31;;;;;;;7.20;1.10;;;;;;;5.85;87.78;100240.69;5057373;28;20384;-89
2020/12/20 06:00:58;;;;;;;10.68;2.00;;;;;;;5.84;88.02;100240.78;5056612;28;20383;-89
2020/12/20 06:03:26;;;;;;;9.68;1.92;;;;;;;5.83;87.81;100239.97;5057649;28;20024;-87
2020/12/20 06:05:53;;;;;;;6.55;1.35;;;;;;;5.83;87.81;100244.34;5056892;28;20424;-88
2020/12/20 06:08:23;;;;;;;11.52;1.25;;;;;;;5.81;88.13;100246.25;5057115;28;20467;-89
2020/12/20 06:10:51;;;;;;;7.90;1.45;;;;;;;5.81;88.24;100236.66;5057542;28;20595;-88
2020/12/20 06:13:23;;;;;;;5.85;1.13;;;;;;;5.79;88.16;100238.56;5061029;28;20020;-89
2020/12/20 06:15:53;;;;;;;6.72;1.40;;;;;;;5.78;88.18;100247.31;5069708;28;20460;-92
2020/12/20 06:18:34;;;;;;;8.50;1.60;;;;;;;5.79;88.36;100248.16;5059338;28;20035;-89
2020/12/20 06:21:03;;;;;;;7.55;1.23;;;;;;;5.79;88.44;100248.97;5057204;28;20356;-89
2020/12/20 06:23:31;;;;;;;7.32;1.10;;;;;;;5.78;88.22;100260.34;5056759;28;20459;-88
2020/12/20 06:25:59;;;;;;;7.65;1.10;;;;;;;5.80;88.35;100260.22;5056526;28;20047;-88
2020/12/20 06:28:27;;;;;;;9.45;1.25;;;;;;;5.79;88.37;100253.34;5056876;28;20468;-88
2020/12/20 06:30:54;;;;;;;6.82;1.05;;;;;;;5.78;88.11;100257.72;5073655;28;20371;-88
2020/12/20 06:33:20;;;;;;;6.18;1.30;;;;;;;5.78;88.18;100259.50;5055749;28;20370;-88
2020/12/20 06:35:50;;;;;;;7.88;1.27;;;;;;;5.76;88.45;100256.19;5056473;28;20032;-88
2020/12/20 06:38:21;;;;;;;6.78;0.82;;;;;;;5.75;88.43;100264.97;5057345;28;20487;-87
2020/12/20 06:40:47;;;;;;;8.55;1.05;;;;;;;5.75;88.47;100271.00;5056290;28;20525;-87
2020/12/20 06:43:13;;;;;;;8.30;1.08;;;;;;;5.74;88.36;100282.34;5056613;28;20024;-88
2020/12/20 06:45:42;;;;;;;6.25;1.10;;;;;;;5.73;88.28;100278.09;5057103;28;20021;-88
2020/12/20 06:48:09;;;;;;;9.55;1.20;;;;;;;5.75;88.42;100293.59;5060683;28;20494;-89
2020/12/20 06:50:38;;;;;;;6.10;1.10;;;;;;;5.71;88.09;100285.19;5056637;28;20474;-88
2020/12/20 06:53:08;;;;;;;5.60;1.05;;;;;;;5.70;88.46;100286.97;5056515;28;20382;-88
2020/12/20 06:55:34;;;;;;;3.50;0.90;;;;;;;5.71;88.56;100306.00;5056876;28;20028;-88
2020/12/20 06:58:03;;;;;;;8.02;1.23;;;;;;;5.69;88.13;100307.91;5056041;28;20485;-87
2020/12/20 07:00:44;;;;;;;10.45;1.98;;;;;;;5.69;88.46;100307.91;5058563;28;20472;-86
2020/12/20 07:03:24;;;;;;;10.85;2.05;;;;;;;5.68;88.50;100309.69;5059829;28;20356;-88
2020/12/20 07:05:54;;;;;;;5.82;0.90;;;;;;;5.68;88.47;100320.09;5060476;28;20443;-88
2020/12/20 07:08:25;;;;;;;9.73;2.25;;;;;;;5.68;88.59;100317.50;5059302;28;20138;-86
2020/12/20 07:10:55;;;;;;;6.65;1.70;;;;;;;5.68;88.57;100322.69;5059444;28;20394;-88
2020/12/20 07:13:35;;;;;;;9.07;1.25;;;;;;;5.68;88.54;100324.44;5059846;28;20474;-88
2020/12/20 07:16:09;;;;;;;5.80;1.05;;;;;;;5.68;88.69;100317.50;5059523;28;20448;-88
2020/12/20 07:18:57;;;;;;;4.63;1.40;;;;;;;5.69;88.52;100318.31;5061327;28;20410;-88
2020/12/20 07:21:23;;;;;;;11.93;1.55;;;;;;;5.70;88.60;100327.78;5061808;28;20032;-87
2020/12/20 07:23:52;;;;;;;9.15;2.63;;;;;;;5.69;88.88;100328.72;5061314;28;20020;-87
2020/12/20 07:26:22;;;;;;;10.05;1.15;;;;;;;5.68;88.60;100316.63;5060347;28;20459;-89
2020/12/20 07:28:49;;;;;;;6.88;1.10;;;;;;;5.68;88.62;100314.03;5061965;28;20396;-87
2020/12/20 07:31:19;;;;;;;7.38;1.35;;;;;;;5.69;88.43;100320.91;5059682;28;20410;-88
2020/12/20 07:33:52;;;;;;;5.05;1.30;;;;;;;5.69;88.62;100321.75;5060438;28;20382;-85
2020/12/20 07:36:52;;;;;;;8.67;1.37;;;;;;;5.70;88.79;100331.22;5063905;28;20503;-89
2020/12/20 07:39:40;;;;;;;6.63;1.15;;;;;;;5.71;88.63;100327.66;5066015;28;20276;-89
2020/12/20 07:42:08;;;;;;;8.55;1.40;;;;;;;5.73;88.66;100335.34;5078160;28;20023;-89
2020/12/20 07:44:41;;;;;;;12.85;1.40;;;;;;;5.74;88.76;100347.41;5076539;28;20031;-86
2020/12/20 07:47:22;;;;;;;11.35;1.55;;;;;;;5.76;88.50;100348.13;5077948;28;20040;-86
2020/12/20 07:49:59;;;;;;;6.30;1.10;;;;;;;5.76;88.65;100350.72;5093884;28;20048;-89
2020/12/20 07:52:27;;;;;;;14.50;1.70;;;;;;;5.76;88.61;100358.53;5076241;28;20463;-87
2020/12/20 07:55:00;;;;;;;8.20;1.33;;;;;;;5.75;88.61;100358.66;5072708;28;20048;-87
2020/12/20 07:57:28;;;;;;;11.90;1.55;;;;;;;5.76;88.71;100371.53;5069831;28;20487;-87
2020/12/20 08:00:06;;;;;;;16.13;2.67;;;;;;;5.75;88.74;100371.66;5068141;28;20020;-88
2020/12/20 08:02:33;;;;;;;11.10;1.30;;;;;;;5.75;88.60;100369.06;5065875;28;20040;-87
2020/12/20 08:05:10;;;;;;;8.57;1.42;;;;;;;5.72;88.80;100368.34;5064985;28;20456;-85
2020/12/20 08:07:37;;;;;;;8.70;1.42;;;;;;;5.74;88.88;100370.84;5062756;28;20020;-87
2020/12/20 08:10:05;;;;;;;9.68;1.58;;;;;;;5.75;88.70;100376.88;5062895;28;20489;-87
2020/12/20 08:12:32;;;;;;;13.10;1.75;;;;;;;5.75;88.89;100377.69;5061052;28;20456;-87
2020/12/20 08:15:08;;;;;;;13.75;1.52;;;;;;;5.75;88.74;100377.69;5062729;28;20460;-88
2020/12/20 08:17:37;;;;;;;8.45;1.60;;;;;;;5.74;88.93;100383.00;5061291;28;20524;-87
2020/12/20 08:20:04;;;;;;;11.43;1.40;;;;;;;5.71;88.63;100386.69;5059724;28;20467;-87
2020/12/20 08:22:37;;;;;;;8.43;1.35;;;;;;;5.71;88.67;100386.69;5059216;28;20032;-87
2020/12/20 08:25:11;;;;;;;10.13;1.55;;;;;;;5.69;88.69;100396.38;5058867;28;20418;-87
2020/12/20 08:27:40;;;;;;;14.35;3.22;;;;;;;5.69;88.68;100402.41;5058159;28;20545;-87
2020/12/20 08:30:09;;;;;;;7.70;1.60;;;;;;;5.67;88.91;100400.84;5058045;28;20464;-87
2020/12/20 08:32:42;;;;;;;6.88;1.33;;;;;;;5.66;88.62;100401.81;5058026;28;20528;-88
2020/12/20 08:35:18;;;;;;;6.20;1.20;;;;;;;5.66;88.79;100414.81;5059352;28;20016;-86
2020/12/20 08:41:20;;;;;;;9.20;1.52;;;;;;;5.66;88.69;100420.00;5077368;28;20418;-87
2020/12/20 08:43:46;;;;;;;12.73;1.42;;;;;;;5.68;88.67;100423.31;5057991;28;20391;-88
2020/12/20 08:46:35;;;;;;;8.15;1.70;;;;;;;5.68;88.36;100410.31;5058117;28;20463;-88
2020/12/20 08:49:14;;;;;;;6.20;1.42;;;;;;;5.69;88.43;100435.41;5058055;28;20364;-87
2020/12/20 08:51:40;;;;;;;13.98;2.22;;;;;;;5.72;88.42;100433.41;5058093;28;20070;-87
2020/12/20 08:54:06;;;;;;;4.35;1.38;;;;;;;5.71;88.31;100433.53;5057790;28;20582;-88
2020/12/20 08:56:33;;;;;;;7.38;1.13;;;;;;;5.72;88.17;100441.22;5058097;28;20033;-88
2020/12/20 08:59:00;;;;;;;8.40;1.25;;;;;;;5.74;88.24;100448.06;5058289;28;20374;-87
2020/12/20 09:01:28;;;;;;;7.57;1.00;;;;;;;5.76;87.91;100456.59;5058386;28;20039;-87
2020/12/20 09:03:54;;;;;;;8.82;1.33;;;;;;;5.75;88.01;100462.75;5058755;28;20463;-89
2020/12/20 09:06:20;;;;;;;9.02;1.70;;;;;;;5.76;87.80;100472.22;5059640;28;20421;-89
2020/12/20 09:08:46;;;;;;;9.00;1.58;;;;;;;5.76;87.80;100467.00;5058257;28;20108;-89
2020/12/20 09:11:28;;;;;;;5.55;1.23;;;;;;;5.75;87.69;100466.19;5057576;28;20472;-90
2020/12/20 09:13:54;;;;;;;10.40;1.80;;;;;;;5.77;87.71;100474.69;5058120;28;20029;-90
2020/12/20 09:16:20;;;;;;;8.15;1.65;;;;;;;5.77;87.68;100469.50;5058029;28;20386;-89
2020/12/20 09:18:46;;;;;;;10.93;1.73;;;;;;;5.77;87.44;100466.88;5058270;28;20403;-87
2020/12/20 09:21:22;;;;;;;9.20;1.27;;;;;;;5.80;87.44;100473.63;5057553;28;20043;-87
2020/12/20 09:23:58;;;;;;;11.77;1.80;;;;;;;5.79;87.55;100485.81;5057797;28;20357;-89
2020/12/20 09:26:24;;;;;;;8.00;1.30;;;;;;;5.80;87.57;100477.06;5057447;28;20430;-89
2020/12/20 09:28:50;;;;;;;6.80;1.42;;;;;;;5.84;87.31;100482.84;5057280;28;20036;-89
2020/12/20 09:31:19;;;;;;;9.38;1.30;;;;;;;5.86;87.24;100481.81;5057555;28;20040;-87
2020/12/20 09:33:52;;;;;;;8.02;1.10;;;;;;;5.87;87.09;100490.47;5057680;28;20394;-89
2020/12/20 09:36:29;;;;;;;7.10;1.50;;;;;;;5.89;86.89;100488.56;5062518;28;20026;-88
2020/12/20 09:38:58;;;;;;;7.53;1.15;;;;;;;5.89;86.86;100494.59;5055526;28;20364;-87
2020/12/20 09:41:26;;;;;;;9.30;1.42;;;;;;;5.90;86.98;100500.66;5075597;28;20088;-89
2020/12/20 09:43:54;;;;;;;5.13;1.20;;;;;;;5.91;86.89;100497.94;5069932;28;20054;-85
2020/12/20 09:46:24;;;;;;;7.53;1.85;;;;;;;5.92;87.01;100501.38;5063388;28;20035;-87
2020/12/20 09:48:52;;;;;;;6.45;1.20;;;;;;;5.94;86.88;100500.31;5058942;28;20043;-88
2020/12/20 09:54:40;;;;;;;7.45;1.23;;;;;;;5.99;86.86;100495.56;5075377;28;20113;-87
2020/12/20 09:57:08;;;;;;;10.77;1.38;;;;;;;6.02;86.58;100511.94;5057269;28;20475;-89
2020/12/20 09:59:34;;;;;;;6.35;0.93;;;;;;;6.04;86.52;100512.66;5057509;28;20452;-88
2020/12/20 10:01:59;;;;;;;7.55;1.35;;;;;;;6.06;86.41;100511.59;5057057;28;20031;-87
2020/12/20 10:04:25;;;;;;;6.15;1.25;;;;;;;6.15;86.22;100518.69;5057239;28;20111;-88
2020/12/20 10:06:51;;;;;;;8.45;1.63;;;;;;;6.26;86.38;100512.66;5057157;28;20455;-88
2020/12/20 10:09:18;;;;;;;6.30;1.50;;;;;;;6.32;86.02;100512.22;5056810;28;20025;-87
2020/12/20 10:11:44;;;;;;;5.50;1.42;;;;;;;6.35;85.69;100517.19;5058216;28;20429;-89
2020/12/20 10:14:11;;;;;;;9.32;1.60;;;;;;;6.37;85.63;100523.09;5057476;28;20383;-90
2020/12/20 10:16:39;;;;;;;5.38;1.10;;;;;;;6.39;85.56;100523.81;5057343;28;20056;-89
2020/12/20 10:19:05;;;;;;;4.40;1.27;;;;;;;6.41;85.15;100528.91;5057924;28;20387;-89
2020/12/20 10:21:32;;;;;;;6.97;1.00;;;;;;;6.42;85.10;100527.94;5058055;28;20379;-89
2020/12/20 10:23:59;;;;;;;6.00;1.13;;;;;;;6.45;84.97;100533.75;5058951;28;20522;-89
2020/12/20 10:26:26;;;;;;;5.05;1.20;;;;;;;6.49;85.04;100545.63;5057761;28;20444;-89
2020/12/20 10:28:52;;;;;;;6.20;1.15;;;;;;;6.51;84.85;100542.88;5057375;28;20410;-88
2020/12/20 10:31:21;;;;;;;5.50;1.10;;;;;;;6.54;84.62;100545.25;5056933;28;20438;-89
2020/12/20 10:33:48;;;;;;;7.13;1.10;;;;;;;6.58;84.72;100550.09;5057024;28;20468;-88
2020/12/20 10:36:14;;;;;;;4.50;0.88;;;;;;;6.58;84.36;100547.50;5060932;28;20364;-90
2020/12/20 10:38:40;;;;;;;6.28;1.08;;;;;;;6.66;84.31;100551.31;5061138;28;20421;-90
2020/12/20 10:41:07;;;;;;;9.40;1.83;;;;;;;6.70;84.33;100552.72;5061309;28;20461;-90
2020/12/20 10:43:33;;;;;;;6.72;1.42;;;;;;;6.75;84.07;100554.00;5061340;28;20406;-88
2020/12/20 10:46:01;;;;;;;4.70;1.15;;;;;;;6.78;84.02;100552.94;5061552;28;20020;-88
2020/12/20 10:48:27;;;;;;;4.85;1.13;;;;;;;6.82;84.00;100562.19;5060941;28;20448;-90
2020/12/20 10:50:53;;;;;;;6.25;1.10;;;;;;;6.86;83.50;100558.38;5060974;28;20055;-88
2020/12/20 10:53:19;;;;;;;7.30;1.48;;;;;;;6.90;83.38;100554.59;5060395;28;20406;-89
2020/12/20 10:55:46;;;;;;;9.52;1.80;;;;;;;6.93;83.25;100540.47;5060317;28;20448;-89
2020/12/20 10:58:15;;;;;;;9.45;1.40;;;;;;;6.97;82.90;100550.56;5060552;28;20377;-90
2020/12/20 11:00:42;;;;;;;7.78;1.15;;;;;;;7.01;82.68;100549.38;5060944;28;20414;-89
2020/12/20 11:03:08;;;;;;;6.53;1.10;;;;;;;7.06;82.66;100551.59;5060536;28;20544;-89
2020/12/20 11:05:34;;;;;;;5.50;1.70;;;;;;;7.08;82.33;100541.88;5062109;28;20048;-88
2020/12/20 11:08:01;;;;;;;4.20;1.17;;;;;;;7.10;82.22;100546.03;5070764;28;20024;-89
2020/12/20 11:10:27;;;;;;;6.55;1.25;;;;;;;7.12;82.12;100544.13;5062020;28;20020;-88
2020/12/20 11:12:53;;;;;;;5.15;1.30;;;;;;;7.16;81.99;100552.53;5060630;28;20047;-92
2020/12/20 11:15:20;;;;;;;4.10;1.17;;;;;;;7.16;81.73;100549.94;5060078;28;20549;-90
2020/12/20 11:17:47;;;;;;;5.43;1.20;;;;;;;7.19;81.50;100553.13;5060730;28;20418;-90
2020/12/20 11:20:13;;;;;;;6.82;1.17;;;;;;;7.18;81.34;100543.63;5061265;28;20036;-89
2020/12/20 11:22:39;;;;;;;6.03;1.30;;;;;;;7.17;81.39;100552.41;5060572;28;20600;-90
2020/12/20 11:25:06;;;;;;;6.55;1.17;;;;;;;7.16;80.88;100550.75;5060684;28;20036;-90
2020/12/20 11:27:33;;;;;;;5.85;0.98;;;;;;;7.14;80.96;100547.44;5060589;28;20382;-91
2020/12/20 11:30:08;;;;;;;3.42;1.15;;;;;;;7.15;80.94;100550.88;5061324;28;20360;-92
2020/12/20 11:32:38;;;;;;;6.35;1.45;;;;;;;7.14;80.74;100551.84;5044653;28;20348;-87
2020/12/20 11:35:09;;;;;;;8.38;1.90;;;;;;;7.14;80.81;100550.06;5061377;28;20479;-89
2020/12/20 11:37:41;;;;;;;7.47;1.73;;;;;;;7.16;80.69;100549.94;5048434;28;20426;-89
2020/12/20 11:40:17;;;;;;;4.90;1.17;;;;;;;7.18;80.63;100561.91;5070389;28;20016;-88
2020/12/20 11:42:52;;;;;;;4.43;1.17;;;;;;;7.19;80.56;100550.50;5046008;28;20040;-86
2020/12/20 11:45:23;;;;;;;7.80;1.60;;;;;;;7.19;80.66;100555.72;5072398;28;20388;-89
2020/12/20 11:47:50;;;;;;;6.13;1.40;;;;;;;7.19;80.21;100555.72;5067604;28;20501;-88
2020/12/20 11:50:24;;;;;;;6.53;1.30;;;;;;;7.17;80.16;100565.47;5067278;28;20020;-89
2020/12/20 11:52:51;;;;;;;5.78;1.23;;;;;;;7.14;80.19;100557.88;5066531;28;20487;-90
2020/12/20 11:55:18;;;;;;;7.30;2.05;;;;;;;7.14;79.92;100564.88;5065316;28;20526;-89
2020/12/20 11:57:44;;;;;;;6.32;1.10;;;;;;;7.13;79.82;100564.06;5065578;28;20547;-90
2020/12/20 12:00:10;;;;;;;8.77;1.83;;;;;;;7.13;79.86;100555.41;5061162;28;20361;-89
2020/12/20 12:02:36;;;;;;;4.53;0.80;;;;;;;7.13;79.58;100563.22;5061406;28;20341;-90
2020/12/20 12:05:06;;;;;;;3.10;0.90;;;;;;;7.14;79.38;100575.31;5061375;28;20375;-90
2020/12/20 12:07:33;;;;;;;8.38;1.08;;;;;;;7.12;79.26;100567.63;5060977;28;20368;-89